createdAt,value
2022-10-06T00:00:28.988Z,89.95
2022-10-06T00:01:29.060Z,89.75
2022-10-06T00:02:29.065Z,89.54
2022-10-06T00:03:28.952Z,89.08
2022-10-06T00:04:28.961Z,89.39
2022-10-06T00:05:28.927Z,89.54
2022-10-06T00:06:28.922Z,88.98
2022-10-06T00:07:28.915Z,88.78
2022-10-06T00:08:29.227Z,88.37
2022-10-06T00:09:28.883Z,88.57
2022-10-06T00:10:28.865Z,87.87
2022-10-06T00:11:28.871Z,87.97
2022-10-06T00:12:28.849Z,88.42
2022-10-06T00:13:28.839Z,88.88
2022-10-06T00:14:28.824Z,87.81
2022-10-06T00:15:28.868Z,88.11
2022-10-06T00:16:28.812Z,88.21
2022-10-06T00:17:28.795Z,88.42
2022-10-06T00:18:29.156Z,87.91
2022-10-06T00:19:28.761Z,87.87
2022-10-06T00:20:28.778Z,88.11
2022-10-06T00:21:28.759Z,87.81
2022-10-06T00:22:28.735Z,88.51
2022-10-06T00:23:28.726Z,88.11
2022-10-06T00:24:28.717Z,88.31
2022-10-06T00:25:28.710Z,88.42
2022-10-06T00:26:28.700Z,88.01
2022-10-06T00:27:28.683Z,88.62
2022-10-06T00:28:29.121Z,88.42
2022-10-06T00:29:28.652Z,88.51
2022-10-06T00:30:28.645Z,88.21
2022-10-06T00:31:28.714Z,88.42
2022-10-06T00:32:28.624Z,88.11
2022-10-06T00:33:28.610Z,88.01
2022-10-06T00:34:28.595Z,88.01
2022-10-06T00:35:28.591Z,88.42
2022-10-06T00:36:28.607Z,87.60
2022-10-06T00:37:28.566Z,87.14
2022-10-06T00:38:28.952Z,88.01
2022-10-06T00:39:28.539Z,87.60
2022-10-06T00:40:28.525Z,87.91
2022-10-06T00:41:28.530Z,87.51
2022-10-06T00:42:28.501Z,88.01
2022-10-06T00:43:28.498Z,87.81
2022-10-06T00:44:28.478Z,87.60
2022-10-06T00:45:28.467Z,87.91
2022-10-06T00:46:28.549Z,87.60
2022-10-06T00:47:28.457Z,87.20
2022-10-06T00:48:28.740Z,87.40
2022-10-06T00:49:28.434Z,87.91
2022-10-06T00:50:28.419Z,87.71
2022-10-06T00:51:28.445Z,87.91
2022-10-06T00:52:28.415Z,87.81
2022-10-06T00:53:28.384Z,87.91
2022-10-06T00:54:28.373Z,87.40
2022-10-06T00:55:28.360Z,87.40
2022-10-06T00:56:28.357Z,87.91
2022-10-06T00:57:28.329Z,87.40
2022-10-06T00:58:28.562Z,87.20
2022-10-06T00:59:28.315Z,87.51
2022-10-06T01:00:28.300Z,87.30
2022-10-06T01:01:28.404Z,87.20
2022-10-06T01:02:28.322Z,87.20
2022-10-06T01:03:28.269Z,87.30
2022-10-06T01:04:28.251Z,87.40
2022-10-06T01:05:28.239Z,86.69
2022-10-06T01:06:28.245Z,86.59
2022-10-06T01:07:28.251Z,86.69
2022-10-06T01:08:28.602Z,87.30
2022-10-06T01:09:28.201Z,87.40
2022-10-06T01:10:28.181Z,86.79
2022-10-06T01:11:28.194Z,86.69
2022-10-06T01:12:28.157Z,86.49
2022-10-06T01:13:28.148Z,87.10
2022-10-06T01:14:28.140Z,87.10
2022-10-06T01:15:28.132Z,87.40
2022-10-06T01:16:28.132Z,87.20
2022-10-06T01:17:28.100Z,86.39
2022-10-06T01:18:28.499Z,87.20
2022-10-06T01:19:28.080Z,86.79
2022-10-06T01:20:28.069Z,86.49
2022-10-06T01:21:28.072Z,86.69
2022-10-06T01:22:28.054Z,86.59
2022-10-06T01:23:28.035Z,86.49
2022-10-06T01:24:28.041Z,86.79
2022-10-06T01:25:28.017Z,86.69
2022-10-06T01:26:28.010Z,87.60
2022-10-06T01:27:27.986Z,87.30
2022-10-06T01:28:28.631Z,87.91
2022-10-06T01:29:27.971Z,87.04
2022-10-06T01:30:27.951Z,87.65
2022-10-06T01:31:28.020Z,86.53
2022-10-06T01:32:27.927Z,87.14
2022-10-06T01:33:27.918Z,87.00
2022-10-06T01:34:27.917Z,87.20
2022-10-06T01:35:27.894Z,87.34
2022-10-06T01:36:27.904Z,87.65
2022-10-06T01:37:27.878Z,87.65
2022-10-06T01:38:28.395Z,87.60
2022-10-06T01:39:27.850Z,87.74
2022-10-06T01:40:27.864Z,87.60
2022-10-06T01:41:27.846Z,87.34
2022-10-06T01:42:27.822Z,87.24
2022-10-06T01:43:27.812Z,87.65
2022-10-06T01:44:27.797Z,87.74
2022-10-06T01:45:27.782Z,87.24
2022-10-06T01:46:27.844Z,87.65
2022-10-06T01:47:27.766Z,87.65
2022-10-06T01:48:28.212Z,87.65
2022-10-06T01:49:27.743Z,87.34
2022-10-06T01:50:27.724Z,87.69
2022-10-06T01:51:27.743Z,87.74
2022-10-06T01:52:27.701Z,87.95
2022-10-06T01:53:27.697Z,87.79
2022-10-06T01:54:27.684Z,87.99
2022-10-06T01:55:27.673Z,87.48
2022-10-06T01:56:27.691Z,88.09
2022-10-06T01:57:27.652Z,87.69
2022-10-06T01:58:28.109Z,87.99
2022-10-06T01:59:27.621Z,87.79
2022-10-06T02:00:27.610Z,88.09
2022-10-06T02:01:27.732Z,88.20
2022-10-06T02:02:27.593Z,87.63
2022-10-06T02:03:27.581Z,87.69
2022-10-06T02:04:27.645Z,88.03
2022-10-06T02:05:27.562Z,88.03
2022-10-06T02:06:27.639Z,87.93
2022-10-06T02:07:27.534Z,87.99
2022-10-06T02:08:27.883Z,88.03
2022-10-06T02:09:27.508Z,87.32
2022-10-06T02:10:27.504Z,87.73
2022-10-06T02:11:27.505Z,87.52
2022-10-06T02:12:27.500Z,87.73
2022-10-06T02:13:27.478Z,87.77
2022-10-06T02:14:27.449Z,88.03
2022-10-06T02:15:27.446Z,87.83
2022-10-06T02:16:27.479Z,87.83
2022-10-06T02:17:27.430Z,87.73
2022-10-06T02:18:27.855Z,87.63
2022-10-06T02:19:27.411Z,87.77
2022-10-06T02:20:27.384Z,87.22
2022-10-06T02:21:27.402Z,87.32
2022-10-06T02:22:27.362Z,86.25
2022-10-06T02:23:27.354Z,86.86
2022-10-06T02:24:27.351Z,87.32
2022-10-06T02:25:27.330Z,87.46
2022-10-06T02:26:27.334Z,87.57
2022-10-06T02:27:27.307Z,87.46
2022-10-06T02:28:28.004Z,87.46
2022-10-06T02:29:27.285Z,88.07
2022-10-06T02:30:27.276Z,87.77
2022-10-06T02:31:27.357Z,87.67
2022-10-06T02:32:27.253Z,87.87
2022-10-06T02:33:27.249Z,87.57
2022-10-06T02:34:27.234Z,87.57
2022-10-06T02:35:27.230Z,87.87
2022-10-06T02:36:27.229Z,87.77
2022-10-06T02:37:27.207Z,87.87
2022-10-06T02:38:27.642Z,87.77
2022-10-06T02:39:27.177Z,87.77
2022-10-06T02:40:27.167Z,87.46
2022-10-06T02:41:27.170Z,87.67
2022-10-06T02:42:27.143Z,87.46
2022-10-06T02:43:27.153Z,87.37
2022-10-06T02:44:27.162Z,87.57
2022-10-06T02:45:27.115Z,87.67
2022-10-06T02:46:27.151Z,87.67
2022-10-06T02:47:27.097Z,87.67
2022-10-06T02:48:27.719Z,87.57
2022-10-06T02:49:27.076Z,87.40
2022-10-06T02:50:27.061Z,87.77
2022-10-06T02:51:27.058Z,87.71
2022-10-06T02:52:27.037Z,87.92
2022-10-06T02:53:27.029Z,87.81
2022-10-06T02:54:27.010Z,87.81
2022-10-06T02:55:27.008Z,87.61
2022-10-06T02:56:27.002Z,87.81
2022-10-06T02:57:27.002Z,87.71
2022-10-06T02:58:27.447Z,87.10
2022-10-06T02:59:26.962Z,86.94
2022-10-06T03:00:27.045Z,86.80
2022-10-06T03:01:27.071Z,87.30
2022-10-06T03:02:27.110Z,86.59
2022-10-06T03:03:26.926Z,86.69
2022-10-06T03:04:26.905Z,86.80
2022-10-06T03:05:26.900Z,86.90
2022-10-06T03:06:26.915Z,86.80
2022-10-06T03:07:26.894Z,86.94
2022-10-06T03:08:27.283Z,86.83
2022-10-06T03:09:26.853Z,87.10
2022-10-06T03:10:26.845Z,87.24
2022-10-06T03:11:26.917Z,86.94
2022-10-06T03:12:26.823Z,87.14
2022-10-06T03:13:26.814Z,86.63
2022-10-06T03:14:26.793Z,87.10
2022-10-06T03:15:26.786Z,86.94
2022-10-06T03:16:26.885Z,86.83
2022-10-06T03:17:26.763Z,86.83
2022-10-06T03:18:27.298Z,86.13
2022-10-06T03:19:26.743Z,86.63
2022-10-06T03:20:26.720Z,86.63
2022-10-06T03:21:26.725Z,86.74
2022-10-06T03:22:26.706Z,86.16
2022-10-06T03:23:26.700Z,86.07
2022-10-06T03:24:26.685Z,86.33
2022-10-06T03:25:26.674Z,86.16
2022-10-06T03:26:26.667Z,86.16
2022-10-06T03:27:26.644Z,86.07
2022-10-06T03:28:27.343Z,85.92
2022-10-06T03:29:26.622Z,86.22
2022-10-06T03:30:26.617Z,86.13
2022-10-06T03:31:26.680Z,86.07
2022-10-06T03:32:26.607Z,85.31
2022-10-06T03:33:26.590Z,85.35
2022-10-06T03:34:26.574Z,85.31
2022-10-06T03:35:26.567Z,85.35
2022-10-06T03:36:26.560Z,85.15
2022-10-06T03:37:26.545Z,85.31
2022-10-06T03:38:26.922Z,85.35
2022-10-06T03:39:26.509Z,85.05
2022-10-06T03:40:26.495Z,84.95
2022-10-06T03:41:26.499Z,85.35
2022-10-06T03:42:26.483Z,85.15
2022-10-06T03:43:26.468Z,85.15
2022-10-06T03:44:26.459Z,85.46
2022-10-06T03:45:26.441Z,85.35
2022-10-06T03:46:26.498Z,85.55
2022-10-06T03:47:26.425Z,84.74
2022-10-06T03:48:26.942Z,84.64
2022-10-06T03:49:26.397Z,85.46
2022-10-06T03:50:26.387Z,85.09
2022-10-06T03:51:26.399Z,84.88
2022-10-06T03:52:26.364Z,85.19
2022-10-06T03:53:26.356Z,85.19
2022-10-06T03:54:26.356Z,85.39
2022-10-06T03:55:26.342Z,85.05
2022-10-06T03:56:26.341Z,84.99
2022-10-06T03:57:26.314Z,85.09
2022-10-06T03:58:26.787Z,84.99
2022-10-06T03:59:26.293Z,85.15
2022-10-06T04:00:26.280Z,85.39
2022-10-06T04:01:26.875Z,85.19
2022-10-06T04:02:26.373Z,85.29
2022-10-06T04:03:26.241Z,85.09
2022-10-06T04:04:26.252Z,85.19
2022-10-06T04:05:26.226Z,85.19
2022-10-06T04:06:26.249Z,84.88
2022-10-06T04:07:26.196Z,84.99
2022-10-06T04:08:26.707Z,84.78
2022-10-06T04:09:26.175Z,85.09
2022-10-06T04:10:26.176Z,85.23
2022-10-06T04:11:26.174Z,84.99
2022-10-06T04:12:26.140Z,85.19
2022-10-06T04:13:26.129Z,85.03
2022-10-06T04:14:26.121Z,85.23
2022-10-06T04:15:26.112Z,84.31
2022-10-06T04:16:26.185Z,84.78
2022-10-06T04:17:26.105Z,84.31
2022-10-06T04:18:26.474Z,84.52
2022-10-06T04:19:26.069Z,84.31
2022-10-06T04:20:26.068Z,84.11
2022-10-06T04:21:26.073Z,84.42
2022-10-06T04:22:26.039Z,84.52
2022-10-06T04:23:26.966Z,84.42
2022-10-06T04:24:26.012Z,84.56
2022-10-06T04:25:25.992Z,84.21
2022-10-06T04:26:25.982Z,84.42
2022-10-06T04:27:25.997Z,84.72
2022-10-06T04:28:26.204Z,84.72
2022-10-06T04:29:25.949Z,84.62
2022-10-06T04:30:25.944Z,84.62
2022-10-06T04:31:26.029Z,84.11
2022-10-06T04:32:25.933Z,85.13
2022-10-06T04:33:25.899Z,84.66
2022-10-06T04:34:25.913Z,84.56
2022-10-06T04:35:25.887Z,84.66
2022-10-06T04:36:25.996Z,84.66
2022-10-06T04:37:25.892Z,84.42
2022-10-06T04:38:25.937Z,84.56
2022-10-06T04:39:25.844Z,84.56
2022-10-06T04:40:25.827Z,84.05
2022-10-06T04:41:25.816Z,84.66
2022-10-06T04:42:25.821Z,84.25
2022-10-06T04:43:25.795Z,84.45
2022-10-06T04:44:25.790Z,84.76
2022-10-06T04:45:25.771Z,84.45
2022-10-06T04:47:26.762Z,84.86
2022-10-06T04:48:26.021Z,84.56
2022-10-06T04:49:25.731Z,84.66
2022-10-06T04:50:25.709Z,84.45
2022-10-06T04:51:25.703Z,84.45
2022-10-06T04:52:25.726Z,84.80
2022-10-06T04:53:25.690Z,84.66
2022-10-06T04:54:27.975Z,84.15
2022-10-06T04:55:26.661Z,84.50
2022-10-06T04:56:25.699Z,84.90
2022-10-06T04:57:25.655Z,83.78
2022-10-06T04:58:25.772Z,84.15
2022-10-06T04:59:25.609Z,84.56
2022-10-06T05:00:25.607Z,84.66
2022-10-06T05:01:25.662Z,84.70
2022-10-06T05:02:25.660Z,84.90
2022-10-06T05:03:25.561Z,84.59
2022-10-06T05:04:25.554Z,84.19
2022-10-06T05:05:25.548Z,84.50
2022-10-06T05:06:25.528Z,84.19
2022-10-06T05:07:25.535Z,84.59
2022-10-06T05:08:25.546Z,84.59
2022-10-06T05:09:25.501Z,84.70
2022-10-06T05:10:25.485Z,84.94
2022-10-06T05:11:26.138Z,85.21
2022-10-06T05:12:25.487Z,85.35
2022-10-06T05:13:25.482Z,85.31
2022-10-06T05:14:25.439Z,85.41
2022-10-06T05:15:25.426Z,85.31
2022-10-06T05:16:25.541Z,85.25
2022-10-06T05:17:25.429Z,85.51
2022-10-06T05:18:25.653Z,85.25
2022-10-06T05:19:25.389Z,85.00
2022-10-06T05:20:25.379Z,85.45
2022-10-06T05:21:25.368Z,85.25
2022-10-06T05:22:25.367Z,84.94
2022-10-06T05:23:25.350Z,85.25
2022-10-06T05:24:25.358Z,85.35
2022-10-06T05:25:25.322Z,84.94
2022-10-06T05:26:25.303Z,85.45
2022-10-06T05:27:25.304Z,84.94
2022-10-06T05:28:25.456Z,85.35
2022-10-06T05:29:25.267Z,85.05
2022-10-06T05:30:25.268Z,85.45
2022-10-06T05:31:25.298Z,85.14
2022-10-06T05:32:25.255Z,85.45
2022-10-06T05:33:25.223Z,84.94
2022-10-06T05:34:25.221Z,85.19
2022-10-06T05:35:25.210Z,84.94
2022-10-06T05:36:25.198Z,85.55
2022-10-06T05:37:25.208Z,85.49
2022-10-06T05:38:25.175Z,85.45
2022-10-06T05:39:25.164Z,85.14
2022-10-06T05:40:25.264Z,85.14
2022-10-06T05:41:25.140Z,85.35
2022-10-06T05:42:29.483Z,85.49
2022-10-06T05:43:25.123Z,85.49
2022-10-06T05:44:25.102Z,85.25
2022-10-06T05:45:25.096Z,85.45
2022-10-06T05:46:25.260Z,85.45
2022-10-06T05:47:25.083Z,86.00
2022-10-06T05:48:25.168Z,86.41
2022-10-06T05:49:25.072Z,85.96
2022-10-06T05:50:25.033Z,86.68
2022-10-06T05:51:30.062Z,85.55
2022-10-06T05:52:26.033Z,85.45
2022-10-06T05:53:25.007Z,85.45
2022-10-06T05:54:24.987Z,85.49
2022-10-06T05:55:24.982Z,85.49
2022-10-06T05:56:24.989Z,85.49
2022-10-06T05:57:24.977Z,85.69
2022-10-06T05:58:24.950Z,85.39
2022-10-06T05:59:24.945Z,85.08
2022-10-06T06:00:24.923Z,85.19
2022-10-06T06:01:24.930Z,85.49
2022-10-06T06:02:25.029Z,85.08
2022-10-06T06:03:24.889Z,85.19
2022-10-06T06:04:24.886Z,85.28
2022-10-06T06:05:24.871Z,85.39
2022-10-06T06:06:24.860Z,85.39
2022-10-06T06:07:24.856Z,85.60
2022-10-06T06:08:24.836Z,85.39
2022-10-06T06:09:24.827Z,84.98
2022-10-06T06:10:24.816Z,85.69
2022-10-06T06:11:24.796Z,85.39
2022-10-06T06:12:24.819Z,85.28
2022-10-06T06:13:24.783Z,85.60
2022-10-06T06:14:24.785Z,86.21
2022-10-06T06:15:24.752Z,86.24
2022-10-06T06:16:24.886Z,86.41
2022-10-06T06:17:24.763Z,86.45
2022-10-06T06:18:24.731Z,86.35
2022-10-06T06:19:28.951Z,86.45
2022-10-06T06:20:24.703Z,86.96
2022-10-06T06:21:24.684Z,86.55
2022-10-06T06:22:24.715Z,86.55
2022-10-06T06:23:24.672Z,86.86
2022-10-06T06:24:24.675Z,86.96
2022-10-06T06:25:24.640Z,86.65
2022-10-06T06:26:24.635Z,86.76
2022-10-06T06:27:24.618Z,87.06
2022-10-06T06:28:24.742Z,87.06
2022-10-06T06:29:24.596Z,87.20
2022-10-06T06:30:24.584Z,87.37
2022-10-06T06:31:24.616Z,86.96
2022-10-06T06:32:24.575Z,87.37
2022-10-06T06:33:24.587Z,86.76
2022-10-06T06:34:24.541Z,86.86
2022-10-06T06:35:24.536Z,87.47
2022-10-06T06:36:24.529Z,87.47
2022-10-06T06:37:24.505Z,86.86
2022-10-06T06:38:24.519Z,87.06
2022-10-06T06:39:24.484Z,87.26
2022-10-06T06:40:24.484Z,87.06
2022-10-06T06:41:24.461Z,86.76
2022-10-06T06:42:24.463Z,86.55
2022-10-06T06:43:24.454Z,86.76
2022-10-06T06:44:24.546Z,86.76
2022-10-06T06:45:24.424Z,86.76
2022-10-06T06:46:24.590Z,86.76
2022-10-06T06:47:26.575Z,86.55
2022-10-06T06:48:24.396Z,86.45
2022-10-06T06:49:24.385Z,86.24
2022-10-06T06:50:24.372Z,86.24
2022-10-06T06:51:24.398Z,86.24
2022-10-06T06:52:24.374Z,86.45
2022-10-06T06:53:24.338Z,86.71
2022-10-06T06:54:24.318Z,86.04
2022-10-06T06:55:24.304Z,85.22
2022-10-06T06:56:24.297Z,85.22
2022-10-06T06:57:24.288Z,85.22
2022-10-06T06:58:24.284Z,85.19
2022-10-06T06:59:24.260Z,85.43
2022-10-06T07:00:24.292Z,84.88
2022-10-06T07:01:24.302Z,84.98
2022-10-06T07:02:24.275Z,84.67
2022-10-06T07:03:52.164Z,84.88
2022-10-06T07:04:25.202Z,84.88
2022-10-06T07:05:24.199Z,84.27
2022-10-06T07:06:27.780Z,84.67
2022-10-06T07:07:24.177Z,83.96
2022-10-06T07:08:24.188Z,83.51
2022-10-06T07:09:24.192Z,83.25
2022-10-06T07:10:24.227Z,83.11
2022-10-06T07:11:24.125Z,83.11
2022-10-06T07:12:24.130Z,83.31
2022-10-06T07:13:25.682Z,83.51
2022-10-06T07:14:24.093Z,83.51
2022-10-06T07:15:24.079Z,82.80
2022-10-06T07:16:24.118Z,83.15
2022-10-06T07:17:24.068Z,83.01
2022-10-06T07:18:24.060Z,83.21
2022-10-06T07:19:25.066Z,81.99
2022-10-06T07:20:24.151Z,82.50
2022-10-06T07:21:24.013Z,82.29
2022-10-06T07:22:24.009Z,82.19
2022-10-06T07:23:23.998Z,81.99
2022-10-06T07:24:23.993Z,82.15
2022-10-06T07:25:25.912Z,81.74
2022-10-06T07:26:23.957Z,81.95
2022-10-06T07:27:23.953Z,81.95
2022-10-06T07:28:23.969Z,81.74
2022-10-06T07:29:24.032Z,81.91
2022-10-06T07:30:23.971Z,81.60
2022-10-06T07:31:23.961Z,80.90
2022-10-06T07:32:23.917Z,81.40
2022-10-06T07:33:23.889Z,81.30
2022-10-06T07:34:23.895Z,81.40
2022-10-06T07:35:23.863Z,81.10
2022-10-06T07:36:23.854Z,81.30
2022-10-06T07:37:23.839Z,80.99
2022-10-06T07:38:23.829Z,81.57
2022-10-06T07:39:23.815Z,81.37
2022-10-06T07:40:23.936Z,81.46
2022-10-06T07:41:23.788Z,81.06
2022-10-06T07:42:23.781Z,80.62
2022-10-06T07:43:23.771Z,80.35
2022-10-06T07:44:23.757Z,80.31
2022-10-06T07:45:23.757Z,79.70
2022-10-06T07:46:23.793Z,79.80
2022-10-06T07:47:23.743Z,80.07
2022-10-06T07:48:23.739Z,79.77
2022-10-06T07:49:23.697Z,79.36
2022-10-06T07:50:23.712Z,79.16
2022-10-06T07:51:23.676Z,79.25
2022-10-06T07:52:23.666Z,78.91
2022-10-06T07:53:23.661Z,79.16
2022-10-06T07:54:27.267Z,79.02
2022-10-06T07:55:23.637Z,79.02
2022-10-06T07:56:23.640Z,78.81
2022-10-06T07:57:23.626Z,79.08
2022-10-06T07:58:23.605Z,78.98
2022-10-06T07:59:23.592Z,77.66
2022-10-06T08:00:23.675Z,77.97
2022-10-06T08:01:23.641Z,76.81
2022-10-06T08:02:23.614Z,76.51
2022-10-06T08:03:23.643Z,76.81
2022-10-06T08:04:23.558Z,76.91
2022-10-06T08:05:23.519Z,76.61
2022-10-06T08:06:23.530Z,76.00
2022-10-06T08:07:23.497Z,76.91
2022-10-06T08:08:23.804Z,77.01
2022-10-06T08:09:23.493Z,76.81
2022-10-06T08:10:23.471Z,76.81
2022-10-06T08:11:23.463Z,76.87
2022-10-06T08:12:23.441Z,76.37
2022-10-06T08:13:23.434Z,76.98
2022-10-06T08:14:23.425Z,75.96
2022-10-06T08:15:23.405Z,76.87
2022-10-06T08:16:23.504Z,76.06
2022-10-06T08:17:23.382Z,76.94
2022-10-06T08:18:44.494Z,76.84
2022-10-06T08:19:24.371Z,76.94
2022-10-06T08:20:23.370Z,75.73
2022-10-06T08:21:23.362Z,76.64
2022-10-06T08:22:23.327Z,75.59
2022-10-06T08:23:23.323Z,75.62
2022-10-06T08:24:23.306Z,75.08
2022-10-06T08:25:23.302Z,75.22
2022-10-06T08:26:23.298Z,74.88
2022-10-06T08:27:23.276Z,75.08
2022-10-06T08:28:23.345Z,75.08
2022-10-06T08:29:23.247Z,74.88
2022-10-06T08:30:23.244Z,75.08
2022-10-06T08:31:23.321Z,75.49
2022-10-06T08:32:23.213Z,75.28
2022-10-06T08:33:23.210Z,74.88
2022-10-06T08:34:23.201Z,74.77
2022-10-06T08:35:23.183Z,74.44
2022-10-06T08:36:25.957Z,74.74
2022-10-06T08:37:24.160Z,74.33
2022-10-06T08:38:23.149Z,73.93
2022-10-06T08:39:23.143Z,73.93
2022-10-06T08:40:23.132Z,73.43
2022-10-06T08:41:23.145Z,72.99
2022-10-06T08:42:23.128Z,73.19
2022-10-06T08:43:23.093Z,73.69
2022-10-06T08:44:23.093Z,73.49
2022-10-06T08:45:23.069Z,72.75
2022-10-06T08:46:24.742Z,73.39
2022-10-06T08:47:23.057Z,73.15
2022-10-06T08:48:23.044Z,72.55
2022-10-06T08:49:23.031Z,72.04
2022-10-06T08:50:23.021Z,72.21
2022-10-06T08:51:23.016Z,72.41
2022-10-06T08:52:23.014Z,71.50
2022-10-06T08:53:22.989Z,71.60
2022-10-06T08:54:22.985Z,70.89
2022-10-06T08:55:22.958Z,70.96
2022-10-06T08:56:22.964Z,70.86
2022-10-06T08:57:22.947Z,70.36
2022-10-06T08:58:22.925Z,69.75
2022-10-06T08:59:22.923Z,70.22
2022-10-06T09:00:23.012Z,69.18
2022-10-06T09:01:22.957Z,68.17
2022-10-06T09:02:22.919Z,68.67
2022-10-06T09:03:22.877Z,68.07
2022-10-06T09:04:22.857Z,68.13
2022-10-06T09:05:22.850Z,68.30
2022-10-06T09:06:22.848Z,67.90
2022-10-06T09:07:22.825Z,66.79
2022-10-06T09:08:22.833Z,66.56
2022-10-06T09:09:22.808Z,66.76
2022-10-06T09:10:22.798Z,66.02
2022-10-06T09:11:22.792Z,66.13
2022-10-06T09:12:22.776Z,66.39
2022-10-06T09:13:22.758Z,65.59
2022-10-06T09:14:22.751Z,65.06
2022-10-06T09:15:22.736Z,64.12
2022-10-06T09:16:22.888Z,63.51
2022-10-06T09:17:22.724Z,63.31
2022-10-06T09:18:22.701Z,63.15
2022-10-06T09:19:24.590Z,62.85
2022-10-06T09:20:22.677Z,62.32
2022-10-06T09:21:22.692Z,61.01
2022-10-06T09:22:22.657Z,60.48
2022-10-06T09:23:22.664Z,60.78
2022-10-06T09:24:22.665Z,61.38
2022-10-06T09:25:22.639Z,64.60
2022-10-06T09:26:22.629Z,62.49
2022-10-06T09:27:22.609Z,61.25
2022-10-06T09:28:22.626Z,62.26
2022-10-06T09:29:22.579Z,61.00
2022-10-06T09:30:22.565Z,59.89
2022-10-06T09:31:22.614Z,59.69
2022-10-06T09:32:22.543Z,59.19
2022-10-06T09:33:22.534Z,59.19
2022-10-06T09:34:22.531Z,59.06
2022-10-06T09:35:22.514Z,57.98
2022-10-06T09:36:22.514Z,57.98
2022-10-06T09:37:22.491Z,57.81
2022-10-06T09:38:22.489Z,57.48
2022-10-06T09:39:22.474Z,57.59
2022-10-06T09:40:22.504Z,57.18
2022-10-06T09:41:22.555Z,57.35
2022-10-06T09:42:22.640Z,57.06
2022-10-06T09:43:22.427Z,57.33
2022-10-06T09:44:22.410Z,57.33
2022-10-06T09:45:22.399Z,56.60
2022-10-06T09:46:22.403Z,56.43
2022-10-06T09:47:22.386Z,56.33
2022-10-06T09:48:24.862Z,56.83
2022-10-06T09:49:22.357Z,56.73
2022-10-06T09:50:22.346Z,56.33
2022-10-06T09:51:22.354Z,56.80
2022-10-06T09:52:22.336Z,55.27
2022-10-06T09:53:22.315Z,55.50
2022-10-06T09:54:22.303Z,55.37
2022-10-06T09:55:22.290Z,55.17
2022-10-06T09:56:22.314Z,55.47
2022-10-06T09:57:22.280Z,55.74
2022-10-06T09:58:22.261Z,54.82
2022-10-06T09:59:22.260Z,54.79
2022-10-06T10:00:22.244Z,54.17
2022-10-06T10:01:22.300Z,52.57
2022-10-06T10:02:22.214Z,52.44
2022-10-06T10:03:22.303Z,52.25
2022-10-06T10:04:22.211Z,52.34
2022-10-06T10:05:22.178Z,52.14
2022-10-06T10:06:22.194Z,50.95
2022-10-06T10:07:22.157Z,51.84
2022-10-06T10:08:22.320Z,50.95
2022-10-06T10:09:22.786Z,50.24
2022-10-06T10:10:22.129Z,49.15
2022-10-06T10:11:22.135Z,49.35
2022-10-06T10:12:22.133Z,49.74
2022-10-06T10:13:22.100Z,50.54
2022-10-06T10:14:22.086Z,49.95
2022-10-06T10:15:22.075Z,50.15
2022-10-06T10:16:22.145Z,50.04
2022-10-06T10:17:22.048Z,48.25
2022-10-06T10:18:22.040Z,47.75
2022-10-06T10:19:22.031Z,47.85
2022-10-06T10:20:22.024Z,48.57
2022-10-06T10:21:22.014Z,49.27
2022-10-06T10:22:22.000Z,50.04
2022-10-06T10:23:22.019Z,49.05
2022-10-06T10:24:21.967Z,50.02
2022-10-06T10:25:21.968Z,48.22
2022-10-06T10:26:21.980Z,48.20
2022-10-06T10:27:21.935Z,48.70
2022-10-06T10:28:22.022Z,49.60
2022-10-06T10:29:21.923Z,49.40
2022-10-06T10:30:22.610Z,48.50
2022-10-06T10:31:21.952Z,48.10
2022-10-06T10:32:21.889Z,48.28
2022-10-06T10:34:25.165Z,48.68
2022-10-06T10:35:21.856Z,48.35
2022-10-06T10:36:21.859Z,47.08
2022-10-06T10:37:21.831Z,48.18
2022-10-06T10:38:21.822Z,48.28
2022-10-06T10:39:21.812Z,48.28
2022-10-06T10:40:21.794Z,47.71
2022-10-06T10:41:21.800Z,48.32
2022-10-06T10:42:21.781Z,48.14
2022-10-06T10:43:21.773Z,47.72
2022-10-06T10:44:21.778Z,47.65
2022-10-06T10:45:21.746Z,48.22
2022-10-06T10:46:21.757Z,48.32
2022-10-06T10:47:21.719Z,47.92
2022-10-06T10:48:21.727Z,47.92
2022-10-06T10:49:21.711Z,48.02
2022-10-06T10:50:21.687Z,49.12
2022-10-06T10:51:21.697Z,48.13
2022-10-06T10:52:21.671Z,48.40
2022-10-06T10:53:21.672Z,48.30
2022-10-06T10:54:21.654Z,48.40
2022-10-06T10:55:21.639Z,48.78
2022-10-06T10:56:21.643Z,48.58
2022-10-06T10:57:21.627Z,48.38
2022-10-06T10:58:21.611Z,48.18
2022-10-06T10:59:21.587Z,48.28
2022-10-06T11:00:21.596Z,48.28
2022-10-06T11:01:21.627Z,48.18
2022-10-06T11:02:21.706Z,48.70
2022-10-06T11:03:21.552Z,48.20
2022-10-06T11:04:21.532Z,48.00
2022-10-06T11:05:24.134Z,49.12
2022-10-06T11:06:22.526Z,48.43
2022-10-06T11:07:21.501Z,49.12
2022-10-06T11:08:21.492Z,48.63
2022-10-06T11:09:21.483Z,48.43
2022-10-06T11:10:21.477Z,48.10
2022-10-06T11:11:21.466Z,47.60
2022-10-06T11:12:21.442Z,46.19
2022-10-06T11:13:21.434Z,46.38
2022-10-06T11:14:21.432Z,46.31
2022-10-06T11:15:21.411Z,46.48
2022-10-06T11:16:21.473Z,46.48
2022-10-06T11:17:21.397Z,46.58
2022-10-06T11:18:21.691Z,46.19
2022-10-06T11:19:21.374Z,46.19
2022-10-06T11:20:21.353Z,46.48
2022-10-06T11:21:21.378Z,46.38
2022-10-06T11:22:21.334Z,45.89
2022-10-06T11:23:21.338Z,47.58
2022-10-06T11:24:21.316Z,48.25
2022-10-06T11:25:21.314Z,46.36
2022-10-06T11:26:21.307Z,46.76
2022-10-06T11:27:21.286Z,47.74
2022-10-06T11:28:21.363Z,47.31
2022-10-06T11:29:21.270Z,46.20
2022-10-06T11:30:21.253Z,45.50
2022-10-06T11:31:22.854Z,44.12
2022-10-06T11:32:21.252Z,45.62
2022-10-06T11:33:21.234Z,46.12
2022-10-06T11:34:21.200Z,45.90
2022-10-06T11:35:21.197Z,46.30
2022-10-06T11:36:21.192Z,44.98
2022-10-06T11:37:21.184Z,46.08
2022-10-06T11:38:21.161Z,44.60
2022-10-06T11:39:21.156Z,45.20
2022-10-06T11:40:21.142Z,44.10
2022-10-06T11:41:21.152Z,45.24
2022-10-06T11:42:21.157Z,45.29
2022-10-06T11:43:21.109Z,46.62
2022-10-06T11:44:21.100Z,46.92
2022-10-06T11:45:21.090Z,48.35
2022-10-06T11:46:21.235Z,48.65
2022-10-06T11:47:34.298Z,48.55
2022-10-06T11:48:22.079Z,50.02
2022-10-06T11:49:21.053Z,49.82
2022-10-06T11:50:21.046Z,48.20
2022-10-06T11:51:21.016Z,47.80
2022-10-06T11:52:21.027Z,47.68
2022-10-06T11:53:21.005Z,46.28
2022-10-06T11:54:20.991Z,47.16
2022-10-06T11:55:21.001Z,47.03
2022-10-06T11:56:20.967Z,46.42
2022-10-06T11:57:22.278Z,46.89
2022-10-06T11:58:41.286Z,45.10
2022-10-06T11:59:21.937Z,44.60
2022-10-06T12:00:20.940Z,44.23
2022-10-06T12:01:20.910Z,44.53
2022-10-06T12:02:21.067Z,44.15
2022-10-06T12:03:21.010Z,45.54
2022-10-06T12:04:24.566Z,46.14
2022-10-06T12:05:54.756Z,46.12
2022-10-06T12:06:21.856Z,45.72
2022-10-06T12:07:20.844Z,45.90
2022-10-06T12:08:20.836Z,45.00
2022-10-06T12:09:20.834Z,45.00
2022-10-06T12:10:20.834Z,44.60
2022-10-06T12:11:20.801Z,45.24
2022-10-06T12:12:20.793Z,45.22
2022-10-06T12:14:01.485Z,46.14
2022-10-06T12:17:21.753Z,44.20
2022-10-06T12:18:20.721Z,43.73
2022-10-06T12:19:20.728Z,44.94
2022-10-06T12:20:20.741Z,44.84
2022-10-06T12:21:20.689Z,44.72
2022-10-06T12:22:20.686Z,45.72
2022-10-06T12:23:20.669Z,46.01
2022-10-06T12:24:20.658Z,45.40
2022-10-06T12:25:20.670Z,44.98
2022-10-06T12:26:20.638Z,45.78
2022-10-06T12:27:23.451Z,44.68
2022-10-06T12:28:21.699Z,45.18
2022-10-06T12:29:20.609Z,43.98
2022-10-06T12:30:20.609Z,44.28
2022-10-06T12:31:20.652Z,44.38
2022-10-06T12:32:20.589Z,44.40
2022-10-06T12:33:20.561Z,44.40
2022-10-06T12:34:20.547Z,44.50
2022-10-06T12:35:20.561Z,42.81
2022-10-06T12:36:20.558Z,43.90
2022-10-06T12:37:20.524Z,43.41
2022-10-06T12:38:20.513Z,43.88
2022-10-06T12:39:20.505Z,44.88
2022-10-06T12:40:20.497Z,44.18
2022-10-06T12:41:20.484Z,43.98
2022-10-06T12:42:20.474Z,42.39
2022-10-06T12:43:20.458Z,43.57
2022-10-06T12:44:20.450Z,43.54
2022-10-06T12:45:20.433Z,43.94
2022-10-06T12:46:20.472Z,43.94
2022-10-06T12:47:20.413Z,42.47
2022-10-06T12:48:20.397Z,42.97
2022-10-06T12:49:20.390Z,43.59
2022-10-06T12:50:20.381Z,43.79
2022-10-06T12:51:20.467Z,43.29
2022-10-06T12:52:20.437Z,43.19
2022-10-06T12:53:20.341Z,43.68
2022-10-06T12:54:20.488Z,44.26
2022-10-06T12:55:20.324Z,43.54
2022-10-06T12:56:20.336Z,44.24
2022-10-06T12:57:20.357Z,42.94